M I D A S
Marine Information and Data Acquisition System
Tripno 893 of the Zeeleeuw from 2005-05-02 06:51:35 to 2005-05-02 15:58:21
Back to CruiseResearch ActivitiesStationsMapUnderway DataData graphs

EquipmentUnitsComments
TimeDGPSUTC
LatitudeDGPSDM.mWGS84
LongitudeDGPSDM.mWGS84
SpeedMeteo Stationm/sRelative wind speed
DirectionMeteo StationdegRelative wind direction
TemperatureMeteo Stationdeg CelciusAir temperature
PressureMeteo StationPaAtmospheric pressure
HumidityMeteo Station%Relative humidity
Missing or incorrect values are displayed as -999
Metereological data collected by the RV Zeeleeuw from 2005-05-02 06:00:26 to 2005-05-02 16:09:17
Time Latitude Longitude Speed Direction Temperature Pressure Humidity
2005-05-02 06:01 51°13.594 2°56.102 1.7 156 14 101070 75
2005-05-02 06:02 51°13.594 2°56.101 2.2 145 14 101080 76
2005-05-02 06:03 51°13.594 2°56.102 2.1 154 14 101080 76
2005-05-02 06:04 51°13.594 2°56.102 2.9 152 14 101100 76
2005-05-02 06:05 51°13.594 2°56.101 2.1 154 14 101110 76
2005-05-02 06:06 51°13.595 2°56.102 1.9 150 14 101120 76
2005-05-02 06:07 51°13.595 2°56.102 0.9 164 14 101120 76
2005-05-02 06:08 51°13.596 2°56.103 2.1 142 14.1 101130 76
2005-05-02 06:09 51°13.596 2°56.102 1.4 140 14 101130 76
2005-05-02 06:10 51°13.595 2°56.101 1.8 121 14.1 101140 76
2005-05-02 06:11 51°13.595 2°56.102 1.4 139 14.1 101140 77
2005-05-02 06:12 51°13.595 2°56.101 1.9 166 14.1 101140 77
2005-05-02 06:13 51°13.595 2°56.102 1.4 157 14.1 101150 76
2005-05-02 06:14 51°13.595 2°56.102 1.5 153 14.1 101150 76
2005-05-02 06:15 51°13.595 2°56.102 1.2 147 14.1 101150 76
2005-05-02 06:16 51°13.595 2°56.102 1.8 176 14.1 101160 77
2005-05-02 06:17 51°13.595 2°56.103 2.1 153 14.1 101170 77
2005-05-02 06:18 51°13.595 2°56.103 1.7 131 14.1 101180 77
2005-05-02 06:19 51°13.595 2°56.103 2.6 146 14.1 101190 77
2005-05-02 06:20 51°13.595 2°56.103 2.7 153 14 101210 77
2005-05-02 06:21 51°13.595 2°56.103 4.7 114 13.9 101220 78
2005-05-02 06:22 51°13.595 2°56.103 3.7 126 13.8 101240 79
2005-05-02 06:23 51°13.596 2°56.103 5.2 133 13.8 101260 79
2005-05-02 06:24 51°13.595 2°56.103 4.9 117 13.7 101280 80
2005-05-02 06:25 51°13.595 2°56.103 4.3 110 13.7 101310 81
2005-05-02 06:26 51°13.595 2°56.103 5.4 122 13.6 101330 82
2005-05-02 06:27 51°13.595 2°56.103 7.2 71 13.5 101360 82
2005-05-02 06:28 51°13.596 2°56.104 5.2 117 13.5 101380 83
2005-05-02 06:29 51°13.596 2°56.104 7.1 138 13.4 101390 84
2005-05-02 06:30 51°13.595 2°56.103 6.8 113 13.3 101410 84
2005-05-02 06:31 51°13.595 2°56.103 7.9 120 13.2 101410 85
2005-05-02 06:32 51°13.595 2°56.103 8.5 112 13 101420 87
2005-05-02 06:33 51°13.594 2°56.103 7.8 117 12.9 101420 88
2005-05-02 06:34 51°13.594 2°56.103 7.7 108 12.8 101420 90
2005-05-02 06:35 51°13.594 2°56.102 6.5 227 12.7 101420 91
2005-05-02 06:36 51°13.595 2°56.102 6.2 125 12.6 101420 92
2005-05-02 06:37 51°13.595 2°56.102 4.9 112 12.6 101430 93
2005-05-02 06:38 51°13.595 2°56.102 5 103 12.5 101430 94
2005-05-02 06:39 51°13.596 2°56.101 8.1 121 12.5 101410 94
2005-05-02 06:40 51°13.596 2°56.1 6.2 111 12.4 101420 95
2005-05-02 06:41 51°13.596 2°56.101 5.7 129 12.4 101400 95
2005-05-02 06:42 51°13.595 2°56.101 6.1 115 12.4 101390 96
2005-05-02 06:43 51°13.593 2°56.102 3.1 135 12.4 101380 96
2005-05-02 06:44 51°13.594 2°56.102 4.9 121 12.4 101370 96
2005-05-02 06:45 51°13.596 2°56.103 2.7 138 12.4 101360 96
2005-05-02 06:46 51°13.595 2°56.104 2.9 140 12.4 101350 97
2005-05-02 06:47 51°13.595 2°56.101 3.2 114 12.4 101330 97
2005-05-02 06:48 51°13.595 2°56.092 2.2 151 12.4 101320 97
2005-05-02 06:49 51°13.609 2°56.039 3.2 152 12.4 101310 97
2005-05-02 06:50 51°13.637 2°55.958 4.2 186 12.5 101300 97
2005-05-02 06:51 51°13.677 2°55.87 4.4 168 12.5 101290 97
2005-05-02 06:52 51°13.712 2°55.778 3.6 200 12.7 101280 98
2005-05-02 06:53 51°13.725 2°55.714 1.9 290 12.7 101250 97
2005-05-02 06:54 51°13.722 2°55.709 1.7 298 12.7 101220 97
2005-05-02 06:55 51°13.723 2°55.712 1.3 20 12.7 101190 97
2005-05-02 06:56 51°13.746 2°55.695 4.1 29 12.7 101180 97
2005-05-02 06:57 51°13.85 2°55.626 6 32 12.7 101170 97
2005-05-02 06:58 51°13.977 2°55.537 5.6 26 12.7 101170 97
2005-05-02 06:59 51°14.113 2°55.435 5.4 17 12.7 101170 97
2005-05-02 07:00 51°14.249 2°55.295 5.6 14 12.6 101180 97
2005-05-02 07:01 51°14.367 2°55.068 6.7 5 12.5 101200 97
2005-05-02 07:02 51°14.528 2°54.877 7.6 9 12.4 101210 97
2005-05-02 07:03 51°14.71 2°54.7 8.2 5 12.3 101220 97
2005-05-02 07:04 51°14.91 2°54.538 9.7 356 12.3 101220 97
2005-05-02 07:05 51°15.106 2°54.367 9.7 352 12.3 101220 98
2005-05-02 07:06 51°15.311 2°54.207 4.4 348 12.3 101220 98
2005-05-02 07:07 51°15.511 2°54.04 11.4 355 12.2 101210 98
2005-05-02 07:08 51°15.713 2°53.876 12 358 12.1 101180 98
2005-05-02 07:09 51°15.915 2°53.714 11.8 1 12.1 101150 98
2005-05-02 07:10 51°16.119 2°53.558 11.7 4 12.1 101130 98
2005-05-02 07:11 51°16.324 2°53.402 12.2 5 12 101120 98
2005-05-02 07:12 51°16.529 2°53.243 12 3 12 101120 98
2005-05-02 07:13 51°16.728 2°53.075 11.6 5 12 101130 98
2005-05-02 07:14 51°16.918 2°52.888 11.8 4 12 101130 98
2005-05-02 07:15 51°17.112 2°52.703 12 -999 12 101140 98
2005-05-02 07:16 51°17.307 2°52.519 12 1 11.9 101160 98
2005-05-02 07:17 51°17.503 2°52.335 12.5 1 11.9 101160 98
2005-05-02 07:18 51°17.701 2°52.153 11.8 4 11.9 101150 98
2005-05-02 07:19 51°17.896 2°51.969 12 1 11.8 101150 98
2005-05-02 07:20 51°18.086 2°51.775 12 2 11.7 101150 98
2005-05-02 07:21 51°18.279 2°51.585 11.8 5 11.7 101140 98
2005-05-02 07:22 51°18.478 2°51.396 11.9 4 11.6 101140 98
2005-05-02 07:23 51°18.672 2°51.212 11.7 3 11.6 101130 98
2005-05-02 07:24 51°18.867 2°51.025 11.9 3 11.5 101140 98
2005-05-02 07:25 51°19.061 2°50.838 12.3 3 11.5 101140 98
2005-05-02 07:26 51°19.254 2°50.651 11.4 5 11.5 101140 98
2005-05-02 07:27 51°19.446 2°50.472 11.7 4 11.4 101130 98
2005-05-02 07:28 51°19.641 2°50.295 11.2 6 11.4 101130 98
2005-05-02 07:29 51°19.836 2°50.118 10.7 10 11.4 101120 98
2005-05-02 07:30 51°20.033 2°49.941 10.6 12 11.4 101120 98
2005-05-02 07:31 51°20.228 2°49.76 11.1 11 11.4 101110 98
2005-05-02 07:32 51°20.428 2°49.585 10.8 12 11.4 101100 98
2005-05-02 07:33 51°20.629 2°49.412 11.4 13 11.3 101090 98
2005-05-02 07:34 51°20.831 2°49.236 11.2 17 11.3 101090 98
2005-05-02 07:35 51°21.028 2°49.047 11.5 20 11.2 101080 98
2005-05-02 07:36 51°21.225 2°48.855 11.4 19 11.2 101070 99
2005-05-02 07:37 51°21.413 2°48.669 11.1 21 11.2 101070 99
2005-05-02 07:38 51°21.602 2°48.485 11.1 21 11.1 101070 99
2005-05-02 07:39 51°21.791 2°48.301 11.4 21 11.1 101060 99
2005-05-02 07:40 51°21.98 2°48.116 11.5 24 11.1 101050 99
2005-05-02 07:41 51°22.171 2°47.933 11.2 24 11 101040 99
2005-05-02 07:42 51°22.364 2°47.748 11 26 11 101040 99
2005-05-02 07:43 51°22.56 2°47.561 10.8 28 10.9 101020 99
2005-05-02 07:44 51°22.753 2°47.375 10.6 28 10.9 101020 99
2005-05-02 07:45 51°22.949 2°47.187 10.3 29 10.9 101030 99
2005-05-02 07:46 51°23.145 2°46.997 10.2 26 10.8 101030 99
2005-05-02 07:47 51°23.339 2°46.799 10.5 21 10.8 101040 99
2005-05-02 07:48 51°23.534 2°46.601 10.5 20 10.8 101050 99
2005-05-02 07:49 51°23.726 2°46.408 11.1 19 10.8 101050 99
2005-05-02 07:50 51°23.921 2°46.218 11 19 10.7 101060 99
2005-05-02 07:51 51°24.112 2°46.029 10.2 19 10.7 101060 99
2005-05-02 07:52 51°24.305 2°45.838 10.4 21 10.7 101050 99
2005-05-02 07:53 51°24.497 2°45.646 11.2 20 10.7 101050 99
2005-05-02 07:54 51°24.692 2°45.456 10.7 18 10.7 101040 99
2005-05-02 07:55 51°24.886 2°45.263 10.8 17 10.6 101040 100
2005-05-02 07:56 51°25.08 2°45.074 10.8 16 10.6 101050 100
2005-05-02 07:57 51°25.275 2°44.886 11 19 10.7 101040 100
2005-05-02 07:58 51°25.471 2°44.697 10 19 10.6 101050 100
2005-05-02 07:59 51°25.669 2°44.515 10 19 10.7 101060 100
2005-05-02 08:00 51°25.867 2°44.332 10.2 15 10.6 101080 100
2005-05-02 08:01 51°26.068 2°44.152 9.8 11 10.6 101090 100
2005-05-02 08:02 51°26.266 2°43.977 11 13 10.6 101100 100
2005-05-02 08:03 51°26.463 2°43.799 10.3 11 10.6 101100 100
2005-05-02 08:04 51°26.656 2°43.613 10.9 17 10.6 101090 100
2005-05-02 08:05 51°26.846 2°43.421 10.7 18 10.6 101070 100
2005-05-02 08:06 51°27.039 2°43.232 10.8 19 10.6 101070 100
2005-05-02 08:07 51°27.23 2°43.041 10.6 16 10.6 101070 100
2005-05-02 08:08 51°27.425 2°42.857 10.2 15 10.6 101080 100
2005-05-02 08:09 51°27.62 2°42.672 10.8 14 10.6 101090 100
2005-05-02 08:10 51°27.814 2°42.481 10.7 13 10.6 101100 100
2005-05-02 08:11 51°28.01 2°42.291 10.6 16 10.6 101090 100
2005-05-02 08:12 51°28.208 2°42.107 11.5 13 10.6 101080 100
2005-05-02 08:13 51°28.407 2°41.922 11.1 14 10.6 101080 100
2005-05-02 08:14 51°28.605 2°41.737 10 17 10.6 101080 100
2005-05-02 08:15 51°28.801 2°41.549 11.4 16 10.6 101070 100
2005-05-02 08:16 51°28.997 2°41.36 10.8 15 10.6 101070 100
2005-05-02 08:17 51°29.195 2°41.173 10.9 17 10.6 101070 100
2005-05-02 08:18 51°29.391 2°40.985 10 20 10.6 101060 100
2005-05-02 08:19 51°29.586 2°40.794 9.4 24 10.6 101050 100
2005-05-02 08:20 51°29.78 2°40.599 10.3 24 10.5 101050 100
2005-05-02 08:21 51°29.976 2°40.403 10.5 27 10.6 101040 100
2005-05-02 08:22 51°30.172 2°40.204 10.6 26 10.5 101030 100
2005-05-02 08:23 51°30.378 2°40.035 10.6 28 10.6 101020 100
2005-05-02 08:24 51°30.583 2°39.866 10.2 30 10.6 101020 100
2005-05-02 08:25 51°30.789 2°39.698 9.8 30 10.5 101020 100
2005-05-02 08:26 51°30.994 2°39.528 10.1 29 10.5 101030 100
2005-05-02 08:27 51°31.198 2°39.358 8.8 23 10.5 101040 100
2005-05-02 08:28 51°31.401 2°39.185 10.3 20 10.6 101040 100
2005-05-02 08:29 51°31.605 2°39.014 8.8 23 10.6 101040 100
2005-05-02 08:30 51°31.809 2°38.841 9.7 21 10.5 101050 100
2005-05-02 08:31 51°32.014 2°38.668 9.4 21 10.5 101050 100
2005-05-02 08:32 51°32.219 2°38.495 8.4 22 10.6 101050 100
2005-05-02 08:33 51°32.425 2°38.324 9.4 23 10.5 101060 100
2005-05-02 08:34 51°32.636 2°38.148 9.6 22 10.5 101050 100
2005-05-02 08:35 51°32.845 2°37.978 9.1 23 10.6 101050 100
2005-05-02 08:36 51°33.055 2°37.803 9.4 26 10.6 101050 100
2005-05-02 08:37 51°33.265 2°37.631 9.2 23 10.6 101040 100
2005-05-02 08:38 51°33.477 2°37.456 9.2 25 10.6 101040 100
2005-05-02 08:39 51°33.683 2°37.274 9.2 24 10.6 101050 100
2005-05-02 08:40 51°33.885 2°37.085 9.3 21 10.6 101060 100
2005-05-02 08:41 51°34.086 2°36.897 9.4 25 10.6 101050 100
2005-05-02 08:42 51°34.285 2°36.709 9.5 24 10.6 101040 100
2005-05-02 08:43 51°34.486 2°36.521 9.4 24 10.5 101050 100
2005-05-02 08:44 51°34.684 2°36.33 8.8 27 10.5 101040 100
2005-05-02 08:45 51°34.882 2°36.14 9.5 22 10.5 101050 100
2005-05-02 08:46 51°35.081 2°35.952 8.9 23 10.5 101050 100
2005-05-02 08:47 51°35.282 2°35.77 9.1 22 10.5 101050 100
2005-05-02 08:48 51°35.482 2°35.586 9.1 20 10.5 101060 100
2005-05-02 08:49 51°35.683 2°35.403 9.1 17 10.5 101070 100
2005-05-02 08:50 51°35.883 2°35.217 9 16 10.5 101070 100
2005-05-02 08:51 51°36.083 2°35.032 9.4 13 10.6 101080 100
2005-05-02 08:52 51°36.283 2°34.847 9.4 13 10.6 101090 99
2005-05-02 08:53 51°36.484 2°34.667 9.1 12 10.7 101090 99
2005-05-02 08:54 51°36.685 2°34.486 8.8 14 10.7 101100 99
2005-05-02 08:55 51°36.89 2°34.314 8.8 10 10.7 101110 99
2005-05-02 08:56 51°37.091 2°34.137 8.9 8 10.7 101120 99
2005-05-02 08:57 51°37.286 2°33.937 8.6 11 10.8 101120 99
2005-05-02 08:58 51°37.479 2°33.727 8.6 9 10.8 101120 99
2005-05-02 08:59 51°37.672 2°33.513 8.7 8 10.8 101120 99
2005-05-02 09:00 51°37.866 2°33.3 8.6 10 10.8 101130 99
2005-05-02 09:01 51°38.061 2°33.087 8.1 10 10.8 101120 99
2005-05-02 09:02 51°38.256 2°32.875 8.1 10 10.8 101130 99
2005-05-02 09:03 51°38.448 2°32.662 8.2 7 10.8 101120 99
2005-05-02 09:04 51°38.61 2°32.486 5.2 13 10.9 101130 99
2005-05-02 09:05 51°38.7 2°32.387 2.5 14 10.9 101140 98
2005-05-02 09:06 51°38.75 2°32.322 2.2 13 11 101140 98
2005-05-02 09:07 51°38.798 2°32.275 2 8 11.1 101150 98
2005-05-02 09:08 51°38.845 2°32.239 1.9 3 11.2 101150 98
2005-05-02 09:09 51°38.89 2°32.214 1.5 354 11.3 101160 98
2005-05-02 09:10 51°38.926 2°32.192 1.1 352 11.4 101170 98
2005-05-02 09:11 51°38.954 2°32.177 0.7 343 11.5 101180 98
2005-05-02 09:12 51°38.975 2°32.182 0.3 307 11.6 101180 98
2005-05-02 09:13 51°38.993 2°32.206 0.7 241 11.6 101190 97
2005-05-02 09:14 51°39.01 2°32.234 0.5 226 11.6 101190 96
2005-05-02 09:15 51°39.029 2°32.257 0.3 236 11.5 101200 96
2005-05-02 09:16 51°39.1 2°32.249 1.1 341 11.6 101200 96
2005-05-02 09:17 51°39.159 2°32.332 1.9 41 11.6 101210 96
2005-05-02 09:18 51°39.136 2°32.428 3.2 7 11.5 101200 95
2005-05-02 09:19 51°39.094 2°32.422 2.5 346 11.4 101200 95
2005-05-02 09:20 51°39.073 2°32.389 2.5 341 11.4 101200 95
2005-05-02 09:21 51°39.056 2°32.356 2.3 332 11.3 101190 94
2005-05-02 09:22 51°39.043 2°32.326 2.2 343 11.3 101190 94
2005-05-02 09:23 51°39.027 2°32.316 2.2 338 11.2 101190 94
2005-05-02 09:24 51°39.018 2°32.283 2.2 227 11.2 101190 94
2005-05-02 09:25 51°39.016 2°32.251 2.3 327 11.2 101190 94
2005-05-02 09:26 51°39.002 2°32.237 2.1 355 11.1 101190 94
2005-05-02 09:27 51°39.003 2°32.242 1.9 353 11.2 101190 95
2005-05-02 09:28 51°39.003 2°32.254 1 22 11.2 101180 95
2005-05-02 09:29 51°39.023 2°32.265 0.8 22 11.3 101180 95
2005-05-02 09:30 51°39.045 2°32.272 0.5 20 11.4 101170 95
2005-05-02 09:31 51°39.075 2°32.264 0.7 21 11.5 101160 95
2005-05-02 09:32 51°39.099 2°32.256 1.2 15 11.5 101140 95
2005-05-02 09:33 51°39.1 2°32.289 2.7 342 11.6 101130 95
2005-05-02 09:34 51°39.073 2°32.315 3.1 331 11.6 101130 94
2005-05-02 09:35 51°39.045 2°32.309 2.7 305 11.5 101140 94
2005-05-02 09:36 51°39.032 2°32.29 2.7 306 11.5 101150 94
2005-05-02 09:37 51°39.018 2°32.278 2.5 294 11.4 101140 93
2005-05-02 09:38 51°39.007 2°32.255 2.5 289 11.3 101140 93
2005-05-02 09:39 51°39.001 2°32.231 2.5 272 11.3 101140 93
2005-05-02 09:40 51°39.007 2°32.223 3 240 11.2 101140 93
2005-05-02 09:41 51°39.024 2°32.25 2.7 224 11.1 101140 93
2005-05-02 09:42 51°39.039 2°32.282 3 218 11 101140 93
2005-05-02 09:43 51°39.055 2°32.302 2.1 241 10.9 101140 94
2005-05-02 09:44 51°39.046 2°32.264 2.9 306 10.9 101140 94
2005-05-02 09:45 51°39.022 2°32.231 3.1 313 10.9 101130 95
2005-05-02 09:46 51°39.003 2°32.226 2.7 326 10.9 101140 95
2005-05-02 09:47 51°39.001 2°32.238 2.6 344 10.9 101140 95
2005-05-02 09:48 51°39.003 2°32.26 2.5 1 11 101140 95
2005-05-02 09:49 51°39.014 2°32.281 2.7 11 11.1 101130 95
2005-05-02 09:50 51°39.023 2°32.31 2.7 14 11.1 101130 95
2005-05-02 09:51 51°39.033 2°32.337 3 15 11 101120 95
2005-05-02 09:52 51°39.045 2°32.363 2.7 6 11 101110 95
2005-05-02 09:53 51°39.057 2°32.387 3 359 11 101100 95
2005-05-02 09:54 51°39.068 2°32.409 3 347 11.1 101090 96
2005-05-02 09:55 51°39.081 2°32.428 3.3 339 11.1 101080 96
2005-05-02 09:56 51°39.092 2°32.445 3.7 331 11.2 101070 96
2005-05-02 09:57 51°39.104 2°32.461 3.8 323 11.3 101070 96
2005-05-02 09:58 51°39.115 2°32.475 3.7 43 11.3 101060 95
2005-05-02 09:59 51°39.127 2°32.487 3.5 310 11.3 101070 95
2005-05-02 10:00 51°39.138 2°32.5 3.2 309 11.3 101070 95
2005-05-02 10:01 51°39.133 2°32.517 3.2 312 11.3 101080 95
2005-05-02 10:02 51°39.102 2°32.505 2.7 296 11.3 101090 95
2005-05-02 10:03 51°39.072 2°32.445 2.6 295 11.3 101080 95
2005-05-02 10:04 51°39.039 2°32.37 2.5 289 11.3 101080 94
2005-05-02 10:05 51°39.014 2°32.288 2.6 276 11.3 101080 94
2005-05-02 10:06 51°39.002 2°32.23 2.8 263 11.3 101090 94
2005-05-02 10:07 51°38.999 2°32.199 2 256 11.3 101090 94
2005-05-02 10:08 51°39.001 2°32.18 2.3 259 11.3 101100 94
2005-05-02 10:09 51°39.004 2°32.168 3.5 263 11.3 101090 94
2005-05-02 10:10 51°39.006 2°32.159 4.1 286 11.3 101100 94
2005-05-02 10:11 51°38.985 2°32.165 5.1 345 11.3 101100 94
2005-05-02 10:12 51°38.972 2°32.211 4.5 4 11.4 101100 94
2005-05-02 10:13 51°38.983 2°32.227 3.8 8 11.4 101110 94
2005-05-02 10:14 51°38.997 2°32.24 3.8 18 11.5 101110 94
2005-05-02 10:15 51°39.012 2°32.254 3.7 27 11.4 101120 93
2005-05-02 10:16 51°39.028 2°32.26 3.1 40 11.3 101120 93
2005-05-02 10:17 51°39.047 2°32.227 3.1 61 11.2 101120 93
2005-05-02 10:18 51°39.061 2°32.244 4.6 34 11.1 101130 94
2005-05-02 10:19 51°39.039 2°32.306 5.4 337 11.1 101120 94
2005-05-02 10:20 51°38.998 2°32.262 3.7 295 11.2 101120 95
2005-05-02 10:21 51°38.985 2°32.197 2.2 256 11.3 101130 95
2005-05-02 10:22 51°38.991 2°32.183 2.6 251 11.4 101130 95
2005-05-02 10:23 51°39 2°32.169 3.2 241 11.3 101130 94
2005-05-02 10:24 51°39.011 2°32.157 3.2 236 11.3 101120 94
2005-05-02 10:25 51°39.023 2°32.174 3.1 225 11.2 101130 94
2005-05-02 10:26 51°39.035 2°32.188 3.3 220 11.1 101120 94
2005-05-02 10:27 51°39.047 2°32.199 3 214 11 101130 94
2005-05-02 10:28 51°39.06 2°32.207 3 208 11 101130 94
2005-05-02 10:29 51°39.074 2°32.213 2.7 204 11 101130 94
2005-05-02 10:30 51°39.088 2°32.217 2.6 204 11 101130 95
2005-05-02 10:31 51°39.102 2°32.219 2.1 202 11 101120 95
2005-05-02 10:32 51°39.117 2°32.221 2.4 207 11 101120 95
2005-05-02 10:33 51°39.128 2°32.183 3 287 11.1 101120 96
2005-05-02 10:34 51°39.096 2°32.147 4.3 338 11.3 101110 96
2005-05-02 10:35 51°39.044 2°32.185 4.6 345 11.4 101120 96
2005-05-02 10:36 51°39.005 2°32.23 4.3 356 11.7 101120 96
2005-05-02 10:37 51°39.001 2°32.249 3 357 11.8 101120 95
2005-05-02 10:38 51°39.007 2°32.26 3.3 354 12 101110 94
2005-05-02 10:39 51°39.014 2°32.273 3.4 356 12.1 101120 93
2005-05-02 10:40 51°39.022 2°32.285 3.6 1 12 101110 92
2005-05-02 10:41 51°39.031 2°32.296 3.3 9 12 101110 91
2005-05-02 10:42 51°39.041 2°32.307 3.2 15 11.9 101110 91
2005-05-02 10:43 51°39.051 2°32.317 3.1 18 11.9 101120 91
2005-05-02 10:44 51°39.061 2°32.327 3 24 11.8 101120 91
2005-05-02 10:45 51°39.071 2°32.337 2.6 31 11.8 101120 91
2005-05-02 10:46 51°39.064 2°32.382 4.4 359 11.6 101120 91
2005-05-02 10:47 51°39.009 2°32.373 3.2 315 11.6 101120 91
2005-05-02 10:48 51°38.994 2°32.282 2.4 351 11.6 101130 92
2005-05-02 10:49 51°38.996 2°32.204 5.1 19 11.6 101130 91
2005-05-02 10:50 51°39.007 2°32.176 3.5 347 11.4 101130 91
2005-05-02 10:51 51°39.017 2°32.175 4 321 11.3 101140 91
2005-05-02 10:52 51°39.027 2°32.178 1.2 273 11.4 101130 92
2005-05-02 10:53 51°39.037 2°32.184 0.6 213 11.7 101130 93
2005-05-02 10:54 51°39.047 2°32.188 1.2 49 11.9 101120 93
2005-05-02 10:55 51°39.057 2°32.194 -999 49 12.1 101120 93
2005-05-02 10:56 51°39.069 2°32.201 -999 53 12.4 101120 92
2005-05-02 10:57 51°39.078 2°32.209 1.4 265 12.6 101130 91
2005-05-02 10:58 51°39.089 2°32.217 3.6 266 12.8 101140 89
2005-05-02 10:59 51°39.097 2°32.229 2.9 270 12.9 101140 86
2005-05-02 11:00 51°39.107 2°32.239 4.4 270 12.7 101140 85
2005-05-02 11:01 51°39.116 2°32.249 2.7 275 12.6 101140 84
2005-05-02 11:02 51°39.126 2°32.258 1.3 3 12.6 101140 84
2005-05-02 11:03 51°39.136 2°32.267 0.9 31 12.7 101140 83
2005-05-02 11:04 51°39.147 2°32.273 0.9 67 12.8 101140 82
2005-05-02 11:05 51°39.158 2°32.28 0.2 117 13 101140 80
2005-05-02 11:06 51°39.17 2°32.287 -999 129 13.2 101150 80
2005-05-02 11:07 51°39.18 2°32.293 2.9 268 13.4 101150 79
2005-05-02 11:08 51°39.191 2°32.299 2.9 279 13.4 101150 78
2005-05-02 11:09 51°39.201 2°32.304 2.9 286 13.4 101150 78
2005-05-02 11:10 51°39.211 2°32.309 1.9 284 13.4 101140 78
2005-05-02 11:11 51°39.228 2°32.31 0.8 315 13.4 101140 79
2005-05-02 11:12 51°39.255 2°32.278 0.8 348 13.6 101130 79
2005-05-02 11:13 51°39.261 2°32.219 0.9 345 13.6 101130 77
2005-05-02 11:14 51°39.236 2°32.175 2.1 50 13.6 101140 76
2005-05-02 11:15 51°39.206 2°32.157 2.2 73 13.2 101140 77
2005-05-02 11:16 51°39.184 2°32.143 2.3 77 12.7 101140 80
2005-05-02 11:17 51°39.169 2°32.13 2.6 76 12.3 101140 82
2005-05-02 11:18 51°39.157 2°32.118 2.6 77 12.1 101140 84
2005-05-02 11:19 51°39.144 2°32.109 2.3 82 11.9 101150 85
2005-05-02 11:20 51°39.133 2°32.106 1.6 83 11.8 101150 86
2005-05-02 11:21 51°39.123 2°32.107 1.3 85 11.7 101150 87
2005-05-02 11:22 51°39.116 2°32.109 1.6 92 11.7 101150 88
2005-05-02 11:23 51°39.111 2°32.111 1.7 102 11.7 101150 88
2005-05-02 11:24 51°39.107 2°32.114 2.1 115 11.7 101160 88
2005-05-02 11:25 51°39.104 2°32.117 2.3 117 11.7 101160 88
2005-05-02 11:26 51°39.102 2°32.119 2.5 118 11.6 101160 88
2005-05-02 11:27 51°39.101 2°32.121 2.6 116 11.6 101160 89
2005-05-02 11:28 51°39.1 2°32.124 2.5 115 11.5 101160 89
2005-05-02 11:29 51°39.099 2°32.128 2.3 101 11.4 101160 90
2005-05-02 11:30 51°39.099 2°32.13 2.5 95 11.4 101160 90
2005-05-02 11:31 51°39.1 2°32.133 3 103 11.4 101160 90
2005-05-02 11:32 51°39.103 2°32.138 3.1 106 11.3 101160 91
2005-05-02 11:33 51°39.106 2°32.143 3 116 11.3 101160 91
2005-05-02 11:34 51°39.108 2°32.149 3.3 121 11.2 101160 91
2005-05-02 11:35 51°39.111 2°32.154 3.1 130 11.2 101160 92
2005-05-02 11:36 51°39.113 2°32.158 2.9 135 11.1 101170 92
2005-05-02 11:37 51°39.114 2°32.163 3 134 11.1 101160 93
2005-05-02 11:38 51°39.115 2°32.168 2.9 133 11.2 101170 93
2005-05-02 11:39 51°39.119 2°32.17 2.7 141 11.2 101160 93
2005-05-02 11:40 51°39.123 2°32.172 2.5 149 11.2 101160 93
2005-05-02 11:41 51°39.126 2°32.174 2.7 156 11.2 101160 93
2005-05-02 11:42 51°39.129 2°32.177 2.9 160 11.2 101160 93
2005-05-02 11:43 51°39.131 2°32.18 2.7 158 11.2 101160 93
2005-05-02 11:44 51°39.133 2°32.183 2.8 152 11.2 101160 93
2005-05-02 11:45 51°39.135 2°32.186 2.9 146 11.1 101160 93
2005-05-02 11:46 51°39.137 2°32.189 3 142 11.2 101160 94
2005-05-02 11:47 51°39.138 2°32.192 2.7 141 11.2 101170 94
2005-05-02 11:48 51°39.14 2°32.196 2.8 137 11.2 101170 94
2005-05-02 11:49 51°39.141 2°32.199 2.6 135 11.3 101180 93
2005-05-02 11:50 51°39.131 2°32.207 2.5 103 11.3 101180 93
2005-05-02 11:51 51°39.104 2°32.213 3.2 84 11.2 101180 93
2005-05-02 11:52 51°39.055 2°32.207 3.3 70 11.1 101180 93
2005-05-02 11:53 51°39.006 2°32.193 2.7 74 11.1 101180 93
2005-05-02 11:54 51°38.973 2°32.19 2.6 124 11 101170 94
2005-05-02 11:55 51°38.959 2°32.205 1.6 161 11 101170 94
2005-05-02 11:56 51°38.953 2°32.215 1.8 182 11.1 101170 94
2005-05-02 11:57 51°38.954 2°32.199 2 221 11.4 101170 95
2005-05-02 11:58 51°38.959 2°32.214 2.2 246 11.6 101170 95
2005-05-02 11:59 51°38.957 2°32.211 1.7 252 11.7 101170 94
2005-05-02 12:00 51°38.963 2°32.214 1.6 256 11.8 101160 93
2005-05-02 12:01 51°38.978 2°32.225 1.5 257 11.9 101170 92
2005-05-02 12:02 51°38.982 2°32.224 2.4 240 12 101170 91
2005-05-02 12:03 51°38.983 2°32.221 2.6 237 12.1 101170 90
2005-05-02 12:04 51°38.983 2°32.218 2.7 228 12.1 101180 89
2005-05-02 12:05 51°38.987 2°32.221 1.9 237 12 101180 88
2005-05-02 12:06 51°39.01 2°32.252 1.5 244 12 101180 89
2005-05-02 12:07 51°39.03 2°32.285 1.5 223 12.1 101180 88
2005-05-02 12:08 51°39.039 2°32.328 0.3 200 12.2 101180 88
2005-05-02 12:09 51°39.04 2°32.368 -999 161 12.3 101180 87
2005-05-02 12:10 51°39.053 2°32.417 -999 266 12.4 101180 86
2005-05-02 12:11 51°39.099 2°32.418 2.6 317 12.5 101180 86
2005-05-02 12:12 51°39.122 2°32.342 3.5 354 12.6 101180 85
2005-05-02 12:13 51°39.111 2°32.27 3 10 12.6 101180 84
2005-05-02 12:14 51°39.084 2°32.224 2.9 32 12.6 101180 83
2005-05-02 12:15 51°39.066 2°32.202 2.3 34 12.5 101180 83
2005-05-02 12:16 51°39.049 2°32.185 2.1 37 12.4 101180 84
2005-05-02 12:17 51°39.033 2°32.172 1.9 35 12.4 101180 84
2005-05-02 12:18 51°39.02 2°32.16 1.8 34 12.4 101180 84
2005-05-02 12:19 51°39.008 2°32.15 2 34 12.4 101180 84
2005-05-02 12:20 51°38.994 2°32.141 2.5 46 12.5 101180 83
2005-05-02 12:21 51°38.968 2°32.142 2.4 64 12.4 101180 83
2005-05-02 12:22 51°38.947 2°32.149 2.2 78 12.2 101180 84
2005-05-02 12:23 51°38.93 2°32.159 2.3 93 12.1 101180 85
2005-05-02 12:24 51°38.917 2°32.169 2.4 99 12 101190 87
2005-05-02 12:25 51°38.907 2°32.177 2.5 98 11.9 101190 88
2005-05-02 12:26 51°38.897 2°32.182 2.7 91 11.9 101190 88
2005-05-02 12:27 51°38.888 2°32.185 2.5 86 11.9 101190 89
2005-05-02 12:28 51°38.881 2°32.185 2.6 95 11.8 101200 90
2005-05-02 12:29 51°38.875 2°32.185 2.5 97 11.8 101190 90
2005-05-02 12:30 51°38.864 2°32.201 2.2 119 11.9 101200 90
2005-05-02 12:31 51°38.862 2°32.233 1.6 152 12 101200 91
2005-05-02 12:32 51°38.865 2°32.255 1.8 167 12.1 101200 90
2005-05-02 12:33 51°38.868 2°32.271 2.2 175 12.1 101200 90
2005-05-02 12:34 51°38.871 2°32.283 2.1 174 12.1 101210 90
2005-05-02 12:35 51°38.873 2°32.292 2.1 170 12.1 101210 90
2005-05-02 12:36 51°38.875 2°32.298 2.5 166 12.1 101220 90
2005-05-02 12:37 51°38.877 2°32.301 2.7 163 12.1 101220 90
2005-05-02 12:38 51°38.878 2°32.302 2.4 165 12 101210 90
2005-05-02 12:39 51°38.878 2°32.302 2.4 165 12 101210 90
2005-05-02 12:40 51°38.878 2°32.301 2.4 166 12 101210 90
2005-05-02 12:41 51°38.88 2°32.304 2.3 166 12 101210 90
2005-05-02 12:42 51°38.878 2°32.301 2.4 167 11.9 101210 91
2005-05-02 12:43 51°38.877 2°32.298 2.1 171 11.9 101210 91
2005-05-02 12:44 51°38.875 2°32.294 2.1 176 11.8 101220 91
2005-05-02 12:45 51°38.873 2°32.289 2 175 11.7 101220 91
2005-05-02 12:46 51°38.871 2°32.284 2 177 11.7 101220 91
2005-05-02 12:47 51°38.869 2°32.278 1.6 180 11.6 101220 92
2005-05-02 12:48 51°38.866 2°32.272 1.6 185 11.6 101220 93
2005-05-02 12:49 51°38.864 2°32.266 1.4 182 11.7 101220 93
2005-05-02 12:50 51°38.861 2°32.26 1.3 204 11.8 101230 93
2005-05-02 12:51 51°38.857 2°32.255 1.9 189 11.9 101230 93
2005-05-02 12:52 51°38.854 2°32.25 1.5 172 12 101230 92
2005-05-02 12:53 51°38.851 2°32.247 1.7 187 12.2 101230 92
2005-05-02 12:54 51°38.848 2°32.242 2.2 178 12.3 101220 90
2005-05-02 12:55 51°38.844 2°32.237 2.5 176 12.1 101230 89
2005-05-02 12:56 51°38.84 2°32.231 2.5 170 11.9 101230 90
2005-05-02 12:57 51°38.836 2°32.225 3.1 171 11.8 101240 90
2005-05-02 12:58 51°38.835 2°32.221 2.4 183 11.7 101230 91
2005-05-02 12:59 51°38.837 2°32.217 1.8 211 11.7 101230 92
2005-05-02 13:00 51°38.841 2°32.21 2.5 208 11.9 101220 93
2005-05-02 13:01 51°38.847 2°32.204 2 204 11.9 101220 92
2005-05-02 13:02 51°38.857 2°32.196 1.3 179 12.1 101200 92
2005-05-02 13:03 51°38.872 2°32.194 1.4 180 12.4 101200 91
2005-05-02 13:04 51°38.883 2°32.192 2 172 12.3 101210 89
2005-05-02 13:05 51°38.891 2°32.192 2.5 166 12.2 101210 89
2005-05-02 13:06 51°38.897 2°32.189 2.8 172 12.1 101220 89
2005-05-02 13:07 51°38.903 2°32.184 2.8 174 11.9 101230 89
2005-05-02 13:08 51°38.908 2°32.179 3.3 170 11.8 101230 90
2005-05-02 13:09 51°38.912 2°32.174 3 162 11.7 101240 91
2005-05-02 13:10 51°38.915 2°32.172 3.2 157 11.6 101240 92
2005-05-02 13:11 51°38.916 2°32.169 3.3 152 11.5 101240 92
2005-05-02 13:12 51°38.916 2°32.166 2.9 154 11.5 101240 93
2005-05-02 13:13 51°38.926 2°32.224 3 92 11.5 101240 93
2005-05-02 13:14 51°38.885 2°32.34 5.6 47 11.4 101240 93
2005-05-02 13:15 51°38.776 2°32.443 7.6 35 11.4 101230 94
2005-05-02 13:16 51°38.595 2°32.63 9.5 29 11.3 101230 95
2005-05-02 13:17 51°38.398 2°32.814 9.7 30 11.4 101230 95
2005-05-02 13:18 51°38.2 2°32.994 10.5 30 11.4 101230 95
2005-05-02 13:19 51°38.002 2°33.169 10.4 28 11.4 101240 95
2005-05-02 13:20 51°37.803 2°33.35 10.5 30 11.3 101240 95
2005-05-02 13:21 51°37.605 2°33.531 10.3 31 11.3 101250 95
2005-05-02 13:22 51°37.407 2°33.706 10 32 11.3 101250 95
2005-05-02 13:23 51°37.209 2°33.878 9.3 30 11.3 101250 95
2005-05-02 13:24 51°37.01 2°34.049 10.1 33 11.2 101250 95
2005-05-02 13:25 51°36.814 2°34.218 10 38 11.2 101250 96
2005-05-02 13:26 51°36.625 2°34.397 9.2 38 11.1 101260 96
2005-05-02 13:27 51°36.438 2°34.585 9 39 11 101260 96
2005-05-02 13:28 51°36.249 2°34.78 8.9 38 11 101260 96
2005-05-02 13:29 51°36.245 2°35.034 2.2 2 11.1 101270 97
2005-05-02 13:30 51°36.433 2°34.98 7.8 329 11.2 101260 97
2005-05-02 13:31 51°36.619 2°34.794 7.1 329 11.2 101260 97
2005-05-02 13:32 51°36.804 2°34.604 6.7 326 11.2 101260 97
2005-05-02 13:33 51°36.988 2°34.414 6.4 327 11.3 101260 97
2005-05-02 13:34 51°37.176 2°34.223 7.1 332 11.3 101260 97
2005-05-02 13:35 51°37.369 2°34.039 7.3 332 11.3 101260 96
2005-05-02 13:36 51°37.559 2°33.859 6.6 329 11.4 101260 96
2005-05-02 13:37 51°37.746 2°33.672 7.5 336 11.4 101260 96
2005-05-02 13:38 51°37.933 2°33.487 7.1 332 11.4 101260 96
2005-05-02 13:39 51°38.119 2°33.306 7.4 338 11.5 101270 96
2005-05-02 13:40 51°38.287 2°33.084 8.2 338 11.5 101270 96
2005-05-02 13:41 51°38.438 2°32.83 8.2 338 11.5 101270 96
2005-05-02 13:42 51°38.574 2°32.592 6.7 330 11.5 101270 95
2005-05-02 13:43 51°38.629 2°32.435 5.7 322 11.5 101270 95
2005-05-02 13:44 51°38.674 2°32.34 4 285 11.5 101280 95
2005-05-02 13:45 51°38.688 2°32.318 3.2 219 11.5 101280 95
2005-05-02 13:46 51°38.679 2°32.304 2 177 11.4 101280 95
2005-05-02 13:47 51°38.67 2°32.292 2.7 170 11.6 101280 96
2005-05-02 13:48 51°38.66 2°32.282 3.3 167 11.5 101280 95
2005-05-02 13:49 51°38.649 2°32.272 3.1 158 11.4 101280 95
2005-05-02 13:50 51°38.635 2°32.303 2.9 99 11.4 101270 95
2005-05-02 13:51 51°38.528 2°32.379 8.3 26 11.3 101270 95
2005-05-02 13:52 51°38.297 2°32.384 9.6 26 11.3 101260 95
2005-05-02 13:53 51°38.059 2°32.386 9.6 23 11.4 101260 96
2005-05-02 13:54 51°37.82 2°32.393 9.9 24 11.4 101260 95
2005-05-02 13:55 51°37.582 2°32.421 9.4 27 11.4 101260 95
2005-05-02 13:56 51°37.358 2°32.52 9 27 11.5 101260 95
2005-05-02 13:57 51°37.157 2°32.71 8.2 30 11.4 101260 95
2005-05-02 13:58 51°36.963 2°32.907 8.4 28 11.4 101270 95
2005-05-02 13:59 51°36.76 2°33.088 8.3 31 11.4 101270 95
2005-05-02 14:00 51°36.559 2°33.267 8.2 33 11.4 101270 95
2005-05-02 14:01 51°36.355 2°33.435 8.1 29 11.4 101270 95
2005-05-02 14:02 51°36.151 2°33.6 8.4 31 11.4 101270 95
2005-05-02 14:03 51°35.948 2°33.768 8.5 32 11.3 101270 95
2005-05-02 14:04 51°35.75 2°33.936 8.5 34 11.3 101270 95
2005-05-02 14:05 51°35.55 2°34.102 8.6 33 11.2 101270 95
2005-05-02 14:06 51°35.347 2°34.264 9.4 34 11.2 101280 95
2005-05-02 14:07 51°35.146 2°34.427 9.7 33 11.2 101280 96
2005-05-02 14:08 51°34.942 2°34.597 9.4 33 11.2 101280 96
2005-05-02 14:09 51°34.737 2°34.769 9 30 11.2 101270 96
2005-05-02 14:10 51°34.539 2°34.941 8.7 34 11.2 101280 96
2005-05-02 14:11 51°34.34 2°35.124 8.8 33 11.2 101270 95
2005-05-02 14:12 51°34.143 2°35.315 8.9 34 11.2 101280 95
2005-05-02 14:13 51°33.949 2°35.505 8.5 34 11.2 101280 95
2005-05-02 14:14 51°33.763 2°35.708 8.2 33 11.3 101280 95
2005-05-02 14:15 51°33.575 2°35.91 8.4 33 11.3 101270 95
2005-05-02 14:16 51°33.384 2°36.109 8.3 32 11.4 101270 95
2005-05-02 14:17 51°33.185 2°36.309 8.3 32 11.5 101270 95
2005-05-02 14:18 51°32.99 2°36.506 8.1 33 11.6 101270 95
2005-05-02 14:19 51°32.79 2°36.699 7.7 33 11.6 101270 94
2005-05-02 14:20 51°32.593 2°36.905 7.3 33 11.7 101270 94
2005-05-02 14:21 51°32.402 2°37.107 6.8 33 11.7 101270 94
2005-05-02 14:22 51°32.21 2°37.311 6.3 32 11.7 101260 94
2005-05-02 14:23 51°32.015 2°37.514 6.1 29 11.7 101250 94
2005-05-02 14:24 51°31.824 2°37.715 6.2 31 11.7 101260 94
2005-05-02 14:25 51°31.638 2°37.902 6.5 32 11.7 101260 94
2005-05-02 14:26 51°31.446 2°38.093 6.6 32 11.8 101260 94
2005-05-02 14:27 51°31.252 2°38.292 7.4 32 11.7 101260 94
2005-05-02 14:28 51°31.055 2°38.496 7.7 32 11.7 101270 93
2005-05-02 14:29 51°30.86 2°38.702 8 30 11.7 101270 94
2005-05-02 14:30 51°30.666 2°38.902 8.3 29 11.8 101270 94
2005-05-02 14:31 51°30.474 2°39.1 7.7 27 11.8 101270 93
2005-05-02 14:32 51°30.277 2°39.303 7.2 23 11.9 101270 93
2005-05-02 14:33 51°30.084 2°39.503 7.7 25 12 101270 93
2005-05-02 14:34 51°29.885 2°39.706 7.4 22 12 101270 93
2005-05-02 14:35 51°29.693 2°39.895 7.6 24 12.1 101270 93
2005-05-02 14:36 51°29.497 2°40.089 7.7 22 12.2 101270 93
2005-05-02 14:37 51°29.299 2°40.288 7.9 25 12.2 101270 93
2005-05-02 14:38 51°29.105 2°40.481 7.7 22 12.3 101270 92
2005-05-02 14:39 51°28.908 2°40.674 7 18 12.2 101280 92
2005-05-02 14:40 51°28.713 2°40.869 6.5 20 12.3 101270 92
2005-05-02 14:41 51°28.517 2°41.061 6.7 17 12.3 101270 91
2005-05-02 14:42 51°28.321 2°41.257 7.5 19 12.4 101270 91
2005-05-02 14:43 51°28.125 2°41.45 7.6 21 12.4 101270 90
2005-05-02 14:44 51°27.931 2°41.647 7.5 19 12.6 101270 88
2005-05-02 14:45 51°27.733 2°41.846 7.3 19 12.7 101280 87
2005-05-02 14:46 51°27.54 2°42.038 6.7 21 12.7 101270 86
2005-05-02 14:47 51°27.346 2°42.235 7 22 12.7 101270 86
2005-05-02 14:48 51°27.151 2°42.436 7.3 18 12.8 101270 86
2005-05-02 14:49 51°26.957 2°42.64 7.1 20 12.8 101270 85
2005-05-02 14:50 51°26.761 2°42.839 6.7 20 12.9 101280 85
2005-05-02 14:51 51°26.563 2°43.036 6.2 18 12.9 101270 85
2005-05-02 14:52 51°26.372 2°43.232 6.4 18 12.9 101270 85
2005-05-02 14:53 51°26.18 2°43.432 6.9 15 12.9 101270 85
2005-05-02 14:54 51°25.989 2°43.629 6.7 15 12.9 101270 85
2005-05-02 14:55 51°25.799 2°43.829 6.7 13 12.9 101270 85
2005-05-02 14:56 51°25.605 2°44.032 5.9 13 12.9 101270 85
2005-05-02 14:57 51°25.416 2°44.227 5.6 14 12.8 101270 86
2005-05-02 14:58 51°25.222 2°44.431 5.2 12 12.8 101270 86
2005-05-02 14:59 51°25.031 2°44.629 5.3 10 12.7 101270 87
2005-05-02 15:00 51°24.838 2°44.831 5.5 9 12.7 101270 88
2005-05-02 15:01 51°24.649 2°45.027 5.7 8 12.7 101270 88
2005-05-02 15:02 51°24.455 2°45.224 5.5 12 12.7 101270 88
2005-05-02 15:03 51°24.262 2°45.419 5.1 10 12.8 101270 87
2005-05-02 15:04 51°24.07 2°45.606 5 12 12.8 101270 88
2005-05-02 15:05 51°23.877 2°45.798 5.1 10 12.8 101270 88
2005-05-02 15:06 51°23.689 2°45.998 4.7 11 12.8 101270 89
2005-05-02 15:07 51°23.504 2°46.201 4.6 13 12.7 101270 89
2005-05-02 15:08 51°23.314 2°46.399 5 12 12.7 101270 90
2005-05-02 15:09 51°23.127 2°46.592 5.5 9 12.6 101270 91
2005-05-02 15:10 51°22.935 2°46.792 5.8 6 12.6 101270 91
2005-05-02 15:11 51°22.746 2°46.986 5.6 7 12.6 101260 92
2005-05-02 15:12 51°22.558 2°47.183 5.9 4 12.6 101260 91
2005-05-02 15:13 51°22.365 2°47.389 6.3 6 12.7 101260 91
2005-05-02 15:14 51°22.175 2°47.593 6 6 12.7 101260 90
2005-05-02 15:15 51°21.988 2°47.793 5.9 4 12.7 101260 89
2005-05-02 15:16 51°21.798 2°47.992 5.9 6 12.8 101260 88
2005-05-02 15:17 51°21.613 2°48.185 6 4 12.8 101260 87
2005-05-02 15:18 51°21.426 2°48.378 6.2 4 12.9 101260 87
2005-05-02 15:19 51°21.237 2°48.572 6.2 -999 12.9 101260 87
2005-05-02 15:20 51°21.054 2°48.76 6.2 360 12.9 101260 86
2005-05-02 15:21 51°20.868 2°48.95 6.2 1 13 101250 86
2005-05-02 15:22 51°20.678 2°49.139 6.5 358 13 101260 87
2005-05-02 15:23 51°20.493 2°49.326 7.2 357 13 101250 87
2005-05-02 15:24 51°20.305 2°49.517 7.4 356 13 101250 87
2005-05-02 15:25 51°20.119 2°49.707 7.1 355 13.1 101240 86
2005-05-02 15:26 51°19.932 2°49.902 7.4 353 13.1 101240 86
2005-05-02 15:27 51°19.745 2°50.101 6.5 354 13.2 101240 86
2005-05-02 15:28 51°19.562 2°50.296 7.3 350 13.2 101230 86
2005-05-02 15:29 51°19.365 2°50.464 7 350 13.3 101230 86
2005-05-02 15:30 51°19.161 2°50.615 7.1 350 13.4 101230 85
2005-05-02 15:31 51°18.956 2°50.763 6.5 350 13.6 101230 85
2005-05-02 15:32 51°18.749 2°50.911 7.1 351 13.7 101230 85
2005-05-02 15:33 51°18.542 2°51.057 6.7 348 13.8 101230 85
2005-05-02 15:34 51°18.337 2°51.199 6.3 347 13.9 101230 83
2005-05-02 15:35 51°18.129 2°51.346 6.3 350 13.9 101230 82
2005-05-02 15:36 51°17.929 2°51.496 6.5 350 14 101240 81
2005-05-02 15:37 51°17.728 2°51.67 6.4 348 14 101240 81
2005-05-02 15:38 51°17.53 2°51.843 6.6 347 14 101240 82
2005-05-02 15:39 51°17.327 2°52.02 7.1 347 14 101240 82
2005-05-02 15:40 51°17.12 2°52.175 7.1 345 14 101240 81
2005-05-02 15:41 51°16.912 2°52.33 7.1 343 14 101230 81
2005-05-02 15:42 51°16.702 2°52.486 7.1 345 14 101230 81
2005-05-02 15:43 51°16.492 2°52.644 7.3 339 14 101230 80
2005-05-02 15:44 51°16.286 2°52.802 6.9 339 13.9 101230 81
2005-05-02 15:45 51°16.081 2°52.951 7.4 339 13.9 101220 81
2005-05-02 15:46 51°15.88 2°53.102 7 338 13.8 101220 80
2005-05-02 15:47 51°15.667 2°53.222 6.4 339 13.8 101220 80
2005-05-02 15:48 51°15.452 2°53.338 6.1 341 13.8 101220 79
2005-05-02 15:49 51°15.251 2°53.439 5.3 338 13.8 101230 79
2005-05-02 15:50 51°15.066 2°53.537 5 336 13.8 101230 80
2005-05-02 15:51 51°14.907 2°53.627 3.9 326 13.8 101230 80
2005-05-02 15:52 51°14.807 2°53.71 3.7 319 13.8 101240 80
2005-05-02 15:53 51°14.705 2°53.815 4.5 330 13.8 101240 80
2005-05-02 15:54 51°14.622 2°53.987 5.9 336 13.7 101240 80
2005-05-02 15:55 51°14.538 2°54.219 6.6 340 13.7 101230 81
2005-05-02 15:56 51°14.458 2°54.49 7.5 344 13.7 101230 82
2005-05-02 15:57 51°14.406 2°54.78 7.7 349 13.7 101230 82
2005-05-02 15:58 51°14.357 2°55.053 6 346 13.7 101240 83
2005-05-02 15:59 51°14.27 2°55.245 4.1 347 13.7 101240 84
2005-05-02 16:00 51°14.172 2°55.374 3.7 338 13.7 101240 85
2005-05-02 16:01 51°14.07 2°55.45 2.6 321 13.8 101250 86
2005-05-02 16:02 51°13.972 2°55.521 2.8 335 13.9 101250 87
2005-05-02 16:03 51°13.855 2°55.602 3.4 338 14.2 101250 87
2005-05-02 16:04 51°13.751 2°55.728 2.8 337 14.4 101240 86
2005-05-02 16:05 51°13.678 2°55.868 2.6 321 14.7 101240 84
2005-05-02 16:06 51°13.632 2°55.974 1.6 325 15 101250 83
2005-05-02 16:07 51°13.606 2°56.062 1.5 309 15.2 101240 82
2005-05-02 16:08 51°13.595 2°56.1 0.5 272 15.4 101250 81